Time;durP1;ratioP1;P1;durP2;ratioP2;P2;SDS_P1;SDS_P2;PMS_P1;PMS_P2;Temp;Humidity;BMP_temperature;BMP_pressure;BME280_temperature;BME280_humidity;BME280_pressure;Samples;Min_cycle;Max_cycle;Signal;HPM_P1;HPM_P2
2022/04/27 00:00:15;;;;;;;10.25;5.65;;;7.60;99.90;;;;;;5050806;28;20023;-72
2022/04/27 00:02:41;;;;;;;10.02;5.68;;;7.60;99.90;;;;;;5067204;28;20020;-71
2022/04/27 00:05:07;;;;;;;12.65;6.30;;;7.60;99.90;;;;;;5058840;28;20086;-72
2022/04/27 00:07:33;;;;;;;15.00;6.28;;;7.50;99.90;;;;;;5046646;28;20391;-73
2022/04/27 00:09:58;;;;;;;13.68;6.80;;;7.50;99.90;;;;;;5070415;28;20096;-73
2022/04/27 00:12:25;;;;;;;9.15;6.22;;;7.50;99.90;;;;;;5070358;28;20021;-73
2022/04/27 00:14:50;;;;;;;14.52;6.75;;;7.50;99.90;;;;;;5070739;28;20469;-72
2022/04/27 00:17:16;;;;;;;15.20;6.63;;;7.50;99.90;;;;;;5050362;28;20410;-72
2022/04/27 00:19:41;;;;;;;10.80;6.32;;;7.40;99.90;;;;;;5049936;28;20064;-71
2022/04/27 00:22:07;;;;;;;11.80;6.30;;;7.40;99.90;;;;;;5032459;28;20500;-72
2022/04/27 00:24:32;;;;;;;11.85;6.38;;;7.40;99.90;;;;;;5055642;28;20376;-71
2022/04/27 00:26:58;;;;;;;12.10;6.45;;;7.30;99.90;;;;;;5070090;28;20036;-72
2022/04/27 00:29:24;;;;;;;14.50;6.47;;;7.30;99.90;;;;;;5070357;28;20384;-72
2022/04/27 00:31:49;;;;;;;12.82;7.00;;;7.30;99.90;;;;;;5070203;28;20500;-72
2022/04/27 00:34:15;;;;;;;12.18;5.82;;;7.20;99.90;;;;;;5069971;28;20025;-72
2022/04/27 00:36:40;;;;;;;12.82;6.30;;;7.20;99.90;;;;;;5070135;28;20056;-72
2022/04/27 00:39:06;;;;;;;10.90;6.35;;;7.20;99.90;;;;;;5070335;28;20032;-72
2022/04/27 00:41:31;;;;;;;10.65;6.40;;;7.20;99.90;;;;;;5070053;28;20021;-73
2022/04/27 00:43:57;;;;;;;12.93;6.20;;;7.20;99.90;;;;;;5069993;28;20476;-72
2022/04/27 00:46:23;;;;;;;11.30;6.30;;;7.20;99.90;;;;;;5069921;28;20027;-72
2022/04/27 00:48:48;;;;;;;13.77;6.75;;;7.10;99.90;;;;;;5069851;28;20056;-73
2022/04/27 00:51:17;;;;;;;10.68;6.40;;;7.10;99.90;;;;;;5053778;28;20119;-72
2022/04/27 00:53:43;;;;;;;11.57;7.20;;;7.10;99.90;;;;;;5056292;28;20378;-72
2022/04/27 00:56:11;;;;;;;10.70;7.18;;;7.10;99.90;;;;;;5074085;28;20464;-72
2022/04/27 00:58:37;;;;;;;12.02;7.07;;;7.10;99.90;;;;;;5073631;28;20040;-71
2022/04/27 01:01:02;;;;;;;17.13;7.50;;;7.10;99.90;;;;;;5073826;28;20468;-74
2022/04/27 01:03:28;;;;;;;11.48;7.05;;;7.00;99.90;;;;;;5073387;28;20021;-72
2022/04/27 01:05:55;;;;;;;17.02;7.95;;;7.00;99.90;;;;;;5073257;28;20435;-72
2022/04/27 01:08:21;;;;;;;10.77;7.55;;;7.00;99.90;;;;;;5069269;28;20068;-72
2022/04/27 01:10:48;;;;;;;16.45;7.97;;;7.00;99.90;;;;;;5073969;28;20036;-71
2022/04/27 01:13:14;;;;;;;13.57;7.90;;;7.00;99.90;;;;;;5053662;28;20021;-71
2022/04/27 01:15:40;;;;;;;11.63;8.10;;;6.90;99.90;;;;;;5053538;28;20048;-72
2022/04/27 01:18:08;;;;;;;14.68;8.43;;;6.90;99.90;;;;;;5053690;28;20463;-72
2022/04/27 01:20:44;;;;;;;16.42;8.77;;;6.90;99.90;;;;;;5058357;28;20047;-71
2022/04/27 01:23:11;;;;;;;15.32;8.52;;;6.90;99.90;;;;;;5054140;28;20029;-72
2022/04/27 01:25:54;;;;;;;12.90;8.13;;;6.90;99.90;;;;;;5053695;28;20110;-72
2022/04/27 01:28:24;;;;;;;14.40;9.00;;;6.90;99.90;;;;;;5053458;28;20027;-72
2022/04/27 01:30:58;;;;;;;12.15;8.20;;;6.90;99.90;;;;;;5035620;28;20480;-72
2022/04/27 01:33:25;;;;;;;16.35;8.55;;;6.90;99.90;;;;;;5055771;28;20029;-72
2022/04/27 01:35:51;;;;;;;13.88;8.35;;;6.90;99.90;;;;;;5073152;28;20465;-73
2022/04/27 01:38:18;;;;;;;15.10;8.27;;;6.90;99.90;;;;;;5073135;28;20041;-73
2022/04/27 01:40:44;;;;;;;13.40;7.97;;;6.90;99.90;;;;;;5073059;28;20024;-72
2022/04/27 01:43:10;;;;;;;16.83;8.98;;;6.90;99.90;;;;;;5073120;28;20119;-72
2022/04/27 01:45:36;;;;;;;15.15;7.97;;;6.90;99.90;;;;;;5038613;28;20115;-72
2022/04/27 01:48:02;;;;;;;11.98;7.57;;;6.90;99.90;;;;;;5073077;28;20028;-72
2022/04/27 01:50:27;;;;;;;13.35;8.23;;;6.90;99.90;;;;;;5073170;28;20396;-73
2022/04/27 01:55:37;;;;;;;16.58;8.85;;;6.90;99.90;;;;;;5073236;28;20036;-70
2022/04/27 01:58:03;;;;;;;13.43;8.63;;;6.90;99.90;;;;;;5054678;28;20497;-71
2022/04/27 02:00:28;;;;;;;16.63;9.18;;;7.00;99.90;;;;;;5072801;28;20082;-70
2022/04/27 02:02:55;;;;;;;15.32;9.18;;;7.00;99.90;;;;;;5071580;28;20055;-70
2022/04/27 02:05:21;;;;;;;17.65;9.43;;;7.00;99.90;;;;;;5073076;28;20103;-72
2022/04/27 02:07:47;;;;;;;15.57;9.48;;;7.10;99.90;;;;;;5054684;28;20418;-71
2022/04/27 02:10:12;;;;;;;18.35;9.38;;;7.10;99.90;;;;;;5060508;28;20024;-71
2022/04/27 02:12:38;;;;;;;14.70;9.75;;;7.10;99.90;;;;;;5052453;28;20509;-71
2022/04/27 02:15:04;;;;;;;15.07;8.40;;;7.10;99.90;;;;;;5052404;28;20059;-71
2022/04/27 02:17:30;;;;;;;13.23;9.35;;;7.20;99.90;;;;;;5052760;28;20397;-70
2022/04/27 02:19:56;;;;;;;14.18;8.50;;;7.20;99.90;;;;;;5052099;28;20068;-74
2022/04/27 02:22:21;;;;;;;14.77;9.30;;;7.30;99.90;;;;;;5052173;28;20025;-70
2022/04/27 02:24:47;;;;;;;15.38;9.07;;;7.20;99.90;;;;;;5052306;28;20024;-71
2022/04/27 02:27:12;;;;;;;12.65;8.27;;;7.30;99.90;;;;;;5052362;28;20166;-71
2022/04/27 02:29:38;;;;;;;12.73;9.05;;;7.30;99.90;;;;;;5034484;28;20036;-72
2022/04/27 02:32:04;;;;;;;16.90;9.23;;;7.30;99.90;;;;;;5052173;28;20392;-71
2022/04/27 02:34:29;;;;;;;14.63;9.93;;;7.30;99.90;;;;;;5049618;28;20077;-71
2022/04/27 02:36:55;;;;;;;13.43;9.00;;;7.40;99.90;;;;;;5058502;28;20231;-72
2022/04/27 02:39:21;;;;;;;17.40;9.38;;;7.40;99.90;;;;;;5036159;28;20397;-72
2022/04/27 02:41:46;;;;;;;16.80;10.23;;;7.40;99.90;;;;;;5054239;28;20025;-71
2022/04/27 02:44:12;;;;;;;16.27;8.60;;;7.40;99.90;;;;;;5051891;28;20032;-71
2022/04/27 02:46:37;;;;;;;16.70;8.85;;;7.40;99.90;;;;;;5034054;28;20102;-71
2022/04/27 02:51:53;;;;;;;16.63;9.20;;;7.50;99.90;;;;;;5052532;28;20044;-72
2022/04/27 02:54:21;;;;;;;15.32;8.63;;;7.50;99.90;;;;;;5051763;28;20420;-72
2022/04/27 02:56:49;;;;;;;14.65;9.18;;;7.50;99.90;;;;;;5052253;28;20104;-72
2022/04/27 02:59:15;;;;;;;14.00;8.05;;;7.50;99.90;;;;;;5051641;28;20032;-71
2022/04/27 03:01:41;;;;;;;12.93;8.35;;;7.50;99.90;;;;;;5068358;28;20024;-71
2022/04/27 03:04:08;;;;;;;12.57;8.55;;;7.50;99.90;;;;;;5065232;28;20078;-72
2022/04/27 03:06:34;;;;;;;17.17;8.48;;;7.50;99.90;;;;;;5060833;28;20021;-71
2022/04/27 03:08:59;;;;;;;14.25;8.75;;;7.50;99.90;;;;;;5064480;28;20365;-72
2022/04/27 03:11:25;;;;;;;16.33;9.00;;;7.60;99.90;;;;;;5051474;28;20029;-71
2022/04/27 03:13:51;;;;;;;15.07;9.07;;;7.50;99.90;;;;;;5051869;28;20021;-71
2022/04/27 03:16:17;;;;;;;13.38;8.45;;;7.50;99.90;;;;;;5071260;28;20024;-71
2022/04/27 03:18:43;;;;;;;13.50;8.43;;;7.60;99.90;;;;;;5070959;28;20051;-72
2022/04/27 03:21:10;;;;;;;15.10;8.20;;;7.60;99.90;;;;;;5071447;28;20075;-72
2022/04/27 03:23:36;;;;;;;15.73;9.05;;;7.60;99.90;;;;;;5071521;28;20051;-72
2022/04/27 03:26:02;;;;;;;14.73;9.43;;;7.60;99.90;;;;;;5052972;28;20080;-72
2022/04/27 03:28:28;;;;;;;13.00;7.90;;;7.60;99.90;;;;;;5051776;28;20064;-72
2022/04/27 03:30:54;;;;;;;14.13;8.70;;;7.60;99.90;;;;;;5051141;28;20482;-71
2022/04/27 03:33:20;;;;;;;17.10;9.35;;;7.60;99.90;;;;;;5051428;28;20048;-73
2022/04/27 03:35:46;;;;;;;16.27;8.75;;;7.60;99.90;;;;;;5050916;28;20049;-72
2022/04/27 03:38:11;;;;;;;13.70;8.07;;;7.60;99.90;;;;;;5050905;28;20029;-72
2022/04/27 03:40:37;;;;;;;17.50;8.80;;;7.60;99.90;;;;;;5051297;28;20440;-72
2022/04/27 03:43:03;;;;;;;14.48;8.90;;;7.60;99.90;;;;;;5051006;28;20074;-72
2022/04/27 03:45:29;;;;;;;13.02;8.43;;;7.60;99.90;;;;;;5050774;28;20021;-72
2022/04/27 03:47:54;;;;;;;16.23;9.13;;;7.70;99.90;;;;;;5051217;28;20033;-72
2022/04/27 03:50:20;;;;;;;16.58;8.95;;;7.70;99.90;;;;;;5050680;28;20100;-72
2022/04/27 03:52:46;;;;;;;14.70;8.93;;;7.70;99.90;;;;;;5050980;28;20054;-72
2022/04/27 03:55:12;;;;;;;16.95;9.38;;;7.70;99.90;;;;;;5050668;28;20036;-71
2022/04/27 03:57:38;;;;;;;16.02;8.43;;;7.70;99.90;;;;;;5050609;28;20028;-71
2022/04/27 04:00:06;;;;;;;17.10;8.93;;;7.70;99.90;;;;;;5050524;28;20028;-71
2022/04/27 04:02:32;;;;;;;13.50;8.48;;;7.70;99.90;;;;;;5034595;28;20029;-72
2022/04/27 04:04:57;;;;;;;14.82;8.00;;;7.70;99.90;;;;;;5052709;28;20020;-72
2022/04/27 04:07:23;;;;;;;14.02;8.27;;;7.70;99.90;;;;;;5070420;28;20021;-72
2022/04/27 04:09:48;;;;;;;16.02;8.50;;;7.70;99.90;;;;;;5070461;28;20024;-71
2022/04/27 04:12:14;;;;;;;15.88;8.70;;;7.70;99.90;;;;;;5070306;28;20021;-71
2022/04/27 04:14:40;;;;;;;15.60;7.95;;;7.70;99.90;;;;;;5070338;28;20382;-71
2022/04/27 04:17:06;;;;;;;16.17;8.50;;;7.70;99.90;;;;;;5070148;28;20043;-72
2022/04/27 04:19:32;;;;;;;19.20;8.77;;;7.70;99.90;;;;;;5070392;28;20041;-71
2022/04/27 04:21:59;;;;;;;14.60;9.10;;;7.70;99.90;;;;;;5070447;28;20025;-72
2022/04/27 04:24:25;;;;;;;13.25;8.35;;;7.70;99.90;;;;;;5070274;28;20098;-71
2022/04/27 04:29:35;;;;;;;16.30;8.93;;;7.80;99.90;;;;;;5070736;28;20036;-73
2022/04/27 04:32:00;;;;;;;15.70;8.70;;;7.80;99.90;;;;;;5070155;28;20430;-72
2022/04/27 04:34:26;;;;;;;15.90;9.13;;;7.80;99.90;;;;;;5070225;28;20416;-72
2022/04/27 04:36:51;;;;;;;19.40;9.18;;;7.80;99.90;;;;;;5070415;28;20495;-71
2022/04/27 04:39:17;;;;;;;16.95;9.15;;;7.80;99.90;;;;;;5070031;28;20040;-72
2022/04/27 04:41:43;;;;;;;16.33;9.10;;;7.90;99.90;;;;;;5070037;28;20106;-72
2022/04/27 04:44:08;;;;;;;16.15;9.02;;;7.90;99.90;;;;;;5069739;28;20103;-71
2022/04/27 04:46:35;;;;;;;14.48;8.88;;;7.90;99.90;;;;;;5059910;28;20051;-72
2022/04/27 04:49:00;;;;;;;13.63;8.63;;;8.00;99.90;;;;;;5065780;28;20029;-72
2022/04/27 04:51:26;;;;;;;15.38;8.90;;;8.00;99.90;;;;;;5070209;28;20512;-72
2022/04/27 04:53:52;;;;;;;15.80;8.80;;;8.00;99.90;;;;;;5052182;28;20020;-72
2022/04/27 04:56:17;;;;;;;14.23;9.27;;;8.10;99.90;;;;;;5070337;28;20032;-72
2022/04/27 04:58:43;;;;;;;15.18;8.65;;;8.10;99.90;;;;;;5069706;28;20036;-73
2022/04/27 05:01:09;;;;;;;17.20;9.73;;;8.20;99.90;;;;;;5051777;28;20468;-72
2022/04/27 05:03:37;;;;;;;18.30;9.65;;;8.20;99.90;;;;;;5051815;28;20024;-72
2022/04/27 05:06:03;;;;;;;17.17;9.07;;;8.30;99.90;;;;;;5070512;28;20099;-72
2022/04/27 05:08:28;;;;;;;17.92;9.88;;;8.30;99.90;;;;;;5069850;28;20028;-71
2022/04/27 05:10:54;;;;;;;16.23;9.80;;;8.40;99.90;;;;;;5069963;28;20021;-71
2022/04/27 05:13:20;;;;;;;18.23;9.75;;;8.40;99.90;;;;;;5069660;28;20065;-72
2022/04/27 05:15:45;;;;;;;17.85;9.95;;;8.40;99.90;;;;;;5069786;28;20103;-72
2022/04/27 05:18:11;;;;;;;19.38;9.90;;;8.40;99.90;;;;;;5069640;28;20036;-71
2022/04/27 05:20:38;;;;;;;16.70;9.65;;;8.50;99.90;;;;;;5069663;28;20055;-71
2022/04/27 05:23:04;;;;;;;16.45;9.73;;;8.50;99.90;;;;;;5069701;28;20027;-72
2022/04/27 05:25:30;;;;;;;16.38;9.43;;;8.60;99.90;;;;;;5069674;28;20027;-71
2022/04/27 05:27:56;;;;;;;15.82;8.85;;;8.60;99.90;;;;;;5069551;28;20029;-72
2022/04/27 05:33:06;;;;;;;16.90;8.63;;;8.70;99.90;;;;;;5054543;28;20134;-72
2022/04/27 05:35:38;;;;;;;15.40;8.63;;;8.70;99.90;;;;;;5069759;28;20473;-71
2022/04/27 05:38:03;;;;;;;14.75;8.55;;;8.70;99.90;;;;;;5072218;28;20510;-72
2022/04/27 05:40:29;;;;;;;16.52;8.40;;;8.80;99.90;;;;;;5055028;28;20029;-73
2022/04/27 05:42:54;;;;;;;14.25;8.35;;;8.80;99.90;;;;;;5073087;28;20035;-73
2022/04/27 05:45:20;;;;;;;17.00;8.45;;;8.90;99.90;;;;;;5073143;28;20104;-72
2022/04/27 05:47:45;;;;;;;17.17;7.95;;;8.90;99.90;;;;;;5072356;28;20020;-72
2022/04/27 05:50:11;;;;;;;16.42;8.30;;;8.90;99.90;;;;;;5070642;28;20389;-72
2022/04/27 05:52:52;;;;;;;13.45;8.23;;;8.90;99.90;;;;;;5065441;28;20116;-72
2022/04/27 05:55:19;;;;;;;14.02;8.20;;;9.00;99.90;;;;;;5046365;28;20366;-72
2022/04/27 05:57:44;;;;;;;13.50;8.07;;;9.00;99.90;;;;;;5052789;28;20055;-72
2022/04/27 06:00:11;;;;;;;14.65;7.85;;;9.00;99.90;;;;;;5065339;28;20393;-73
2022/04/27 06:02:38;;;;;;;15.55;8.05;;;9.10;99.90;;;;;;5050830;28;20052;-71
2022/04/27 06:05:04;;;;;;;14.65;7.82;;;9.10;99.90;;;;;;5071042;28;20042;-71
2022/04/27 06:07:30;;;;;;;13.02;7.25;;;9.20;99.90;;;;;;5050268;28;20033;-72
2022/04/27 06:09:56;;;;;;;13.95;7.18;;;9.20;99.90;;;;;;5068527;28;20385;-72
2022/04/27 06:12:24;;;;;;;12.00;6.53;;;9.20;99.90;;;;;;5070781;28;20015;-72
2022/04/27 06:14:50;;;;;;;13.93;6.72;;;9.20;99.90;;;;;;5050317;28;20016;-72
2022/04/27 06:17:16;;;;;;;11.57;6.72;;;9.20;99.90;;;;;;5071008;28;20127;-71
2022/04/27 06:19:41;;;;;;;11.95;6.88;;;9.30;99.90;;;;;;5068785;28;20044;-72
2022/04/27 06:22:07;;;;;;;11.07;6.15;;;9.30;99.90;;;;;;5068267;28;20401;-72
2022/04/27 06:24:32;;;;;;;12.68;6.03;;;9.30;99.90;;;;;;5070825;28;20039;-72
2022/04/27 06:26:58;;;;;;;10.85;6.43;;;9.40;99.90;;;;;;5070468;28;20036;-72
2022/04/27 06:29:23;;;;;;;10.38;6.55;;;9.40;99.90;;;;;;5055351;28;20029;-72
2022/04/27 06:31:49;;;;;;;13.50;6.53;;;9.50;99.90;;;;;;5055352;28;20107;-71
2022/04/27 06:34:15;;;;;;;11.02;6.18;;;9.50;99.90;;;;;;5071458;28;20518;-71
2022/04/27 06:36:40;;;;;;;11.13;6.32;;;9.50;99.90;;;;;;5071950;28;20021;-72
2022/04/27 06:39:08;;;;;;;13.05;6.25;;;9.60;99.90;;;;;;5049967;28;20084;-71
2022/04/27 06:41:33;;;;;;;13.48;6.38;;;9.60;99.90;;;;;;5071024;28;20108;-72
2022/04/27 06:43:59;;;;;;;10.98;5.68;;;9.70;99.90;;;;;;5070552;28;20138;-70
2022/04/27 06:46:24;;;;;;;12.90;6.43;;;9.70;99.90;;;;;;5070173;28;20099;-73
2022/04/27 06:48:50;;;;;;;12.18;6.40;;;9.80;99.90;;;;;;5065417;28;20032;-71
2022/04/27 06:51:18;;;;;;;11.07;6.15;;;9.80;99.90;;;;;;5051007;28;20111;-72
2022/04/27 06:53:44;;;;;;;11.10;5.97;;;9.80;99.90;;;;;;5052703;28;20017;-71
2022/04/27 06:56:10;;;;;;;13.65;6.22;;;9.90;99.90;;;;;;5061974;28;20541;-71
2022/04/27 06:58:35;;;;;;;14.73;6.53;;;9.90;99.90;;;;;;5052117;28;20024;-73
2022/04/27 07:01:03;;;;;;;10.85;5.57;;;9.90;99.90;;;;;;5052513;28;20388;-71
2022/04/27 07:03:31;;;;;;;12.38;5.70;;;10.00;99.90;;;;;;5068384;28;20033;-71
2022/04/27 07:05:57;;;;;;;9.63;5.50;;;10.00;99.90;;;;;;5067258;28;20025;-71
2022/04/27 07:08:24;;;;;;;8.73;5.50;;;10.10;99.90;;;;;;5066201;28;20506;-72
2022/04/27 07:10:50;;;;;;;9.63;5.60;;;10.10;99.90;;;;;;5063572;28;20025;-72
2022/04/27 07:13:15;;;;;;;15.25;5.50;;;10.10;99.90;;;;;;5066964;28;20658;-71
2022/04/27 07:15:41;;;;;;;8.68;5.20;;;10.10;99.90;;;;;;5067732;28;20111;-72
2022/04/27 07:18:06;;;;;;;9.02;5.05;;;10.10;99.90;;;;;;5068630;28;20039;-72
2022/04/27 07:20:32;;;;;;;13.02;6.05;;;10.10;99.90;;;;;;5051573;28;20831;-71
2022/04/27 07:22:58;;;;;;;11.77;5.50;;;10.20;99.90;;;;;;5068308;28;20025;-72
2022/04/27 07:25:23;;;;;;;12.52;5.25;;;10.20;99.90;;;;;;5065822;28;20025;-71
2022/04/27 07:27:49;;;;;;;10.27;5.40;;;10.20;99.90;;;;;;5069198;28;20017;-71
2022/04/27 07:30:14;;;;;;;7.78;4.95;;;10.20;99.90;;;;;;5063416;28;20027;-71
2022/04/27 07:32:40;;;;;;;11.20;4.85;;;10.20;99.90;;;;;;5069432;28;20024;-71
2022/04/27 07:35:07;;;;;;;10.60;4.90;;;10.30;99.90;;;;;;5063373;28;20032;-71
2022/04/27 07:37:37;;;;;;;9.80;5.03;;;10.30;99.90;;;;;;5048377;28;20052;-72
2022/04/27 07:40:03;;;;;;;11.05;5.05;;;10.30;99.90;;;;;;5064999;28;20014;-71
2022/04/27 07:42:28;;;;;;;15.00;5.32;;;10.40;99.90;;;;;;5068717;28;20020;-72
2022/04/27 07:44:54;;;;;;;9.38;5.43;;;10.40;99.90;;;;;;5068506;28;20016;-71
2022/04/27 07:47:20;;;;;;;10.65;4.80;;;10.50;99.90;;;;;;5051436;28;20021;-72
2022/04/27 07:49:47;;;;;;;10.60;4.72;;;10.60;99.90;;;;;;5069716;28;20012;-71
2022/04/27 07:52:13;;;;;;;9.32;4.47;;;10.60;99.90;;;;;;5070319;28;20561;-72
2022/04/27 07:54:41;;;;;;;7.20;4.63;;;10.60;99.90;;;;;;5065201;28;20089;-71
2022/04/27 07:57:07;;;;;;;9.95;4.75;;;10.70;99.90;;;;;;5070496;28;20080;-71
2022/04/27 07:59:32;;;;;;;8.70;4.80;;;10.70;99.90;;;;;;5066798;28;20185;-72
2022/04/27 08:01:58;;;;;;;9.73;4.32;;;10.80;99.90;;;;;;5069262;28;20085;-72
2022/04/27 08:04:23;;;;;;;7.85;4.50;;;10.80;99.90;;;;;;5069505;28;20032;-72
2022/04/27 08:06:49;;;;;;;10.73;5.07;;;10.90;99.90;;;;;;5069028;28;20017;-72
2022/04/27 08:09:16;;;;;;;12.77;5.22;;;11.00;99.90;;;;;;5066637;28;20104;-72
2022/04/27 08:11:42;;;;;;;9.60;4.45;;;11.00;99.90;;;;;;5063437;28;20025;-71
2022/04/27 08:14:07;;;;;;;7.70;4.88;;;11.00;99.90;;;;;;5068002;28;20029;-71
2022/04/27 08:16:33;;;;;;;8.73;4.47;;;11.10;99.90;;;;;;5067309;28;20059;-71
2022/04/27 08:18:59;;;;;;;8.75;4.50;;;11.10;99.90;;;;;;5069822;28;20058;-71
2022/04/27 08:21:27;;;;;;;8.35;4.50;;;11.10;99.90;;;;;;5070320;28;20024;-72
2022/04/27 08:23:53;;;;;;;9.55;4.53;;;11.20;99.90;;;;;;5070342;28;20406;-72
2022/04/27 08:26:19;;;;;;;8.18;4.47;;;11.10;99.90;;;;;;5070011;28;20031;-72
2022/04/27 08:28:48;;;;;;;7.88;4.82;;;11.20;99.90;;;;;;5069645;28;20033;-73
2022/04/27 08:31:16;;;;;;;11.35;4.80;;;11.30;99.90;;;;;;5046870;28;20393;-72
2022/04/27 08:33:42;;;;;;;9.13;4.80;;;11.30;99.90;;;;;;5062924;28;20371;-71
2022/04/27 08:36:08;;;;;;;9.85;4.68;;;11.30;99.90;;;;;;5070149;28;20043;-71
2022/04/27 08:38:35;;;;;;;8.50;4.30;;;11.30;99.90;;;;;;5069917;28;20024;-72
2022/04/27 08:41:01;;;;;;;11.07;4.50;;;11.30;99.90;;;;;;5067434;28;20040;-74
2022/04/27 08:43:26;;;;;;;13.40;4.53;;;11.30;99.90;;;;;;5069036;28;20071;-72
2022/04/27 08:45:55;;;;;;;10.32;3.95;;;11.40;99.90;;;;;;5051651;28;20099;-71
2022/04/27 08:48:21;;;;;;;7.80;4.63;;;11.40;99.90;;;;;;5069867;28;20020;-71
2022/04/27 08:50:48;;;;;;;8.27;4.22;;;11.40;99.90;;;;;;5069856;28;20147;-72
2022/04/27 08:53:13;;;;;;;9.48;4.30;;;11.50;99.90;;;;;;5069989;28;20099;-72
2022/04/27 08:55:40;;;;;;;8.48;4.00;;;11.50;99.90;;;;;;5069569;28;20182;-71
2022/04/27 08:58:07;;;;;;;11.68;3.97;;;11.50;99.90;;;;;;5051675;28;20024;-71
2022/04/27 09:00:33;;;;;;;9.63;4.22;;;11.50;99.90;;;;;;5069654;28;20782;-72
2022/04/27 09:03:21;;;;;;;6.50;4.03;;;11.60;99.90;;;;;;5069633;28;20032;-71
2022/04/27 09:05:51;;;;;;;10.60;4.00;;;11.60;99.90;;;;;;5069072;28;20017;-72
2022/04/27 09:08:17;;;;;;;7.80;4.10;;;11.70;99.90;;;;;;5057528;28;20029;-72
2022/04/27 09:10:43;;;;;;;5.55;3.65;;;11.70;99.90;;;;;;5062266;28;20024;-71
2022/04/27 09:13:08;;;;;;;6.90;4.00;;;11.80;99.90;;;;;;5058140;28;20508;-71
2022/04/27 09:15:34;;;;;;;7.85;3.50;;;11.80;99.90;;;;;;5056452;28;20036;-73
2022/04/27 09:20:47;;;;;;;4.93;3.20;;;11.80;99.90;;;;;;5067254;28;20097;-73
2022/04/27 09:23:37;;;;;;;5.97;3.38;;;11.70;99.90;;;;;;5046504;28;20043;-72
2022/04/27 09:26:22;;;;;;;5.78;3.17;;;11.80;99.90;;;;;;5067102;28;20100;-73
2022/04/27 09:28:49;;;;;;;8.00;3.33;;;11.90;99.90;;;;;;5054426;28;20048;-74
2022/04/27 09:31:34;;;;;;;5.68;2.72;;;11.80;99.90;;;;;;5073760;28;20519;-72
2022/04/27 09:34:02;;;;;;;6.90;2.70;;;11.70;99.90;;;;;;5066550;28;20483;-75
2022/04/27 09:36:27;;;;;;;6.78;3.03;;;11.70;99.90;;;;;;5071964;28;20048;-73
2022/04/27 09:38:55;;;;;;;6.68;2.72;;;11.70;99.90;;;;;;5067079;28;20037;-74
2022/04/27 09:41:38;;;;;;;4.15;2.72;;;11.80;99.90;;;;;;5068000;28;20019;-71
2022/04/27 09:44:04;;;;;;;8.27;2.92;;;11.80;99.90;;;;;;5069347;28;20039;-72
2022/04/27 09:46:29;;;;;;;7.25;3.20;;;11.90;99.90;;;;;;5070249;28;20029;-72
2022/04/27 09:49:15;;;;;;;5.55;2.95;;;12.00;99.90;;;;;;5074578;28;20063;-72
2022/04/27 09:51:52;;;;;;;5.82;2.67;;;12.00;99.90;;;;;;5064152;28;20048;-72
2022/04/27 09:54:24;;;;;;;5.75;2.58;;;12.10;99.90;;;;;;5064404;28;20048;-72
2022/04/27 09:56:55;;;;;;;5.28;2.70;;;12.10;99.90;;;;;;5053212;28;20025;-73
2022/04/27 09:59:29;;;;;;;5.60;2.53;;;12.10;99.90;;;;;;5069307;28;20028;-72
2022/04/27 10:01:58;;;;;;;7.13;2.60;;;12.10;99.90;;;;;;5071412;28;20024;-73
2022/04/27 10:04:26;;;;;;;4.78;2.42;;;12.20;99.90;;;;;;5071854;28;20599;-70
2022/04/27 10:06:53;;;;;;;5.40;2.30;;;12.20;99.90;;;;;;5073597;28;20044;-71
2022/04/27 10:09:19;;;;;;;4.70;2.53;;;12.30;99.90;;;;;;5072738;28;20028;-72
2022/04/27 10:11:44;;;;;;;4.97;2.22;;;12.30;99.90;;;;;;5067686;28;20469;-72
2022/04/27 10:14:11;;;;;;;5.88;2.30;;;12.40;99.70;;;;;;5062791;28;20017;-71
2022/04/27 10:16:37;;;;;;;4.43;2.40;;;12.30;98.70;;;;;;5053424;28;20389;-74
2022/04/27 10:19:08;;;;;;;7.38;2.63;;;12.40;98.90;;;;;;5052602;28;20037;-71
2022/04/27 10:21:57;;;;;;;7.38;2.20;;;12.40;98.40;;;;;;5044511;28;20036;-71
2022/04/27 10:24:35;;;;;;;7.45;2.50;;;12.50;97.70;;;;;;5065973;28;20020;-71
2022/04/27 10:27:20;;;;;;;5.30;2.30;;;12.40;97.80;;;;;;5069974;28;20017;-71
2022/04/27 10:29:51;;;;;;;6.35;2.40;;;12.30;97.00;;;;;;5071090;28;20028;-70
2022/04/27 10:32:37;;;;;;;6.30;2.60;;;12.20;98.20;;;;;;5071338;28;20035;-72
2022/04/27 10:35:12;;;;;;;6.65;2.10;;;12.20;98.80;;;;;;5069526;28;20015;-71
2022/04/27 10:37:57;;;;;;;8.70;2.63;;;12.30;99.00;;;;;;5063255;28;20074;-71
2022/04/27 10:40:32;;;;;;;7.43;2.28;;;12.30;99.80;;;;;;5065101;28;20034;-72
2022/04/27 10:43:40;;;;;;;7.10;2.30;;;12.30;99.90;;;;;;5059467;28;20488;-71
2022/04/27 10:46:36;;;;;;;9.48;2.30;;;12.20;99.90;;;;;;5056455;28;20584;-72
2022/04/27 10:49:19;;;;;;;9.85;2.72;;;12.00;99.90;;;;;;5063204;28;20021;-71
2022/04/27 10:52:15;;;;;;;5.07;2.50;;;11.90;99.90;;;;;;5050612;28;20037;-71
2022/04/27 10:54:41;;;;;;;10.05;2.88;;;11.90;99.90;;;;;;5038524;28;20397;-71
2022/04/27 10:57:19;;;;;;;9.00;2.42;;;11.90;99.90;;;;;;5063053;28;20041;-72
2022/04/27 10:59:56;;;;;;;7.82;2.25;;;11.90;99.90;;;;;;5061922;28;20044;-73
2022/04/27 11:02:38;;;;;;;4.97;2.00;;;11.90;99.90;;;;;;5064362;28;20393;-71
2022/04/27 11:05:19;;;;;;;8.15;2.47;;;11.90;99.90;;;;;;5046173;28;20491;-71
2022/04/27 11:07:56;;;;;;;10.52;2.63;;;11.90;99.90;;;;;;5071817;28;20028;-71
2022/04/27 11:10:24;;;;;;;7.28;2.90;;;11.90;99.90;;;;;;5067159;28;20032;-72
2022/04/27 11:12:52;;;;;;;9.02;2.92;;;11.90;99.90;;;;;;5063348;28;20028;-71
2022/04/27 11:15:25;;;;;;;7.75;2.78;;;11.90;99.90;;;;;;5065002;28;20063;-72
2022/04/27 11:18:02;;;;;;;5.20;2.05;;;12.00;99.90;;;;;;5064126;28;20040;-72
2022/04/27 11:20:33;;;;;;;7.20;1.95;;;11.90;99.80;;;;;;5064590;28;20049;-72
2022/04/27 11:23:01;;;;;;;4.05;1.98;;;12.00;99.40;;;;;;5060378;28;20021;-71
2022/04/27 11:25:31;;;;;;;6.03;2.30;;;12.00;97.80;;;;;;5051423;28;20088;-71
2022/04/27 11:27:59;;;;;;;6.50;2.72;;;12.10;97.90;;;;;;5051393;28;20096;-70
2022/04/27 11:30:26;;;;;;;7.20;2.50;;;12.10;97.90;;;;;;5051526;28;20100;-71
2022/04/27 11:32:52;;;;;;;5.70;2.33;;;12.10;97.60;;;;;;5051462;28;20048;-71
2022/04/27 11:35:23;;;;;;;9.13;2.80;;;12.10;98.00;;;;;;5050900;28;20032;-71
2022/04/27 11:37:52;;;;;;;6.97;2.22;;;12.10;97.80;;;;;;5051066;28;20410;-71
2022/04/27 11:40:19;;;;;;;10.57;2.80;;;12.10;98.50;;;;;;5067423;28;20020;-71
2022/04/27 11:42:46;;;;;;;7.47;2.17;;;12.10;98.70;;;;;;5072186;28;20039;-71
2022/04/27 11:45:22;;;;;;;9.43;2.50;;;12.10;98.70;;;;;;5072355;28;20467;-70
2022/04/27 11:48:00;;;;;;;11.38;2.80;;;12.20;98.90;;;;;;5054983;28;20044;-70
2022/04/27 11:50:30;;;;;;;9.07;2.40;;;12.20;99.20;;;;;;5070793;28;20028;-71
2022/04/27 11:53:07;;;;;;;5.75;2.50;;;12.20;99.00;;;;;;5071100;28;20051;-70
2022/04/27 11:55:34;;;;;;;12.68;2.75;;;12.20;99.20;;;;;;5071068;28;20012;-71
2022/04/27 11:58:01;;;;;;;9.70;2.72;;;12.20;99.30;;;;;;5053194;28;20067;-71
2022/04/27 12:00:29;;;;;;;9.07;3.03;;;12.20;99.10;;;;;;5070927;28;20039;-71
2022/04/27 12:03:05;;;;;;;8.27;2.75;;;12.20;99.30;;;;;;5070670;28;20029;-71
2022/04/27 12:05:32;;;;;;;7.95;3.03;;;12.30;99.20;;;;;;5052735;28;20028;-70
2022/04/27 12:07:58;;;;;;;8.55;3.05;;;12.30;99.40;;;;;;5070474;28;20024;-70
2022/04/27 12:10:24;;;;;;;12.45;3.10;;;12.40;98.80;;;;;;5070411;28;20033;-70
2022/04/27 12:12:49;;;;;;;6.35;2.80;;;12.50;98.30;;;;;;5063498;28;20085;-71
2022/04/27 12:15:15;;;;;;;9.00;2.80;;;12.50;97.80;;;;;;5058956;28;20028;-71
2022/04/27 12:17:48;;;;;;;8.60;2.70;;;12.50;97.60;;;;;;5070336;28;20502;-71
2022/04/27 12:20:34;;;;;;;8.00;2.45;;;12.60;97.60;;;;;;5049770;28;20390;-72
2022/04/27 12:23:07;;;;;;;5.53;2.28;;;12.70;97.00;;;;;;5062828;28;20370;-70
2022/04/27 12:25:49;;;;;;;9.30;3.00;;;12.70;96.90;;;;;;5055844;28;20078;-71
2022/04/27 12:28:19;;;;;;;6.43;2.58;;;12.70;95.70;;;;;;5050575;28;20052;-71
2022/04/27 12:30:53;;;;;;;6.85;2.65;;;12.60;95.10;;;;;;5032171;28;20017;-72
2022/04/27 12:33:24;;;;;;;8.57;3.15;;;12.60;95.40;;;;;;5049994;28;20037;-71
2022/04/27 12:39:11;;;;;;;8.07;2.78;;;12.70;96.20;;;;;;5051563;28;20083;-72
2022/04/27 12:41:48;;;;;;;10.57;2.75;;;12.90;96.50;;;;;;5070321;28;20305;-71
2022/04/27 12:44:18;;;;;;;13.20;2.72;;;13.10;96.60;;;;;;5051635;28;20029;-72
2022/04/27 12:47:10;;;;;;;11.68;2.83;;;13.10;95.60;;;;;;5072616;28;20119;-72
2022/04/27 12:49:37;;;;;;;9.57;2.90;;;13.20;96.00;;;;;;5058703;28;20032;-71
2022/04/27 12:52:27;;;;;;;10.15;2.70;;;13.40;95.70;;;;;;5058937;28;20028;-71
2022/04/27 12:55:12;;;;;;;11.10;2.75;;;13.40;93.80;;;;;;5058770;28;20032;-71
2022/04/27 12:57:49;;;;;;;8.70;2.75;;;13.20;94.10;;;;;;5077204;28;20103;-71
2022/04/27 13:00:18;;;;;;;13.98;3.05;;;13.10;94.60;;;;;;5076681;28;20106;-71
2022/04/27 13:02:44;;;;;;;12.25;2.85;;;13.20;94.80;;;;;;5076661;28;20037;-71
2022/04/27 13:05:11;;;;;;;12.50;3.00;;;13.20;94.60;;;;;;5077117;28;20028;-71
2022/04/27 13:07:36;;;;;;;10.70;3.13;;;13.30;94.60;;;;;;5073159;28;20031;-71